Time;durP1;ratioP1;P1;durP2;ratioP2;P2;SDS_P1;SDS_P2;PMS_P1;PMS_P2;Temp;Humidity;BMP_temperature;BMP_pressure;BME280_temperature;BME280_humidity;BME280_pressure;Samples;Min_cycle;Max_cycle;Signal;HPM_P1;HPM_P2
2021/03/14 00:00:52;;;;;;;0.70;0.70;;;5.00;99.90;;;;;;4973364;28;20188;-70
2021/03/14 00:03:19;;;;;;;1.37;0.93;;;5.00;99.90;;;;;;4975923;28;20212;-68
2021/03/14 00:05:47;;;;;;;3.43;1.13;;;5.00;99.90;;;;;;4974453;28;20659;-69
2021/03/14 00:08:14;;;;;;;0.70;0.60;;;5.00;99.90;;;;;;4973427;28;20559;-68
2021/03/14 00:10:42;;;;;;;0.70;0.63;;;5.00;99.90;;;;;;4971315;28;20684;-67
2021/03/14 00:13:10;;;;;;;1.50;0.60;;;5.10;99.90;;;;;;4973460;28;20257;-67
2021/03/14 00:15:36;;;;;;;3.27;0.67;;;5.10;99.90;;;;;;4970704;28;20263;-67
2021/03/14 00:18:02;;;;;;;1.33;0.90;;;5.00;99.90;;;;;;4970345;28;20198;-67
2021/03/14 00:20:28;;;;;;;0.73;0.70;;;5.10;99.90;;;;;;4975546;28;20210;-67
2021/03/14 00:22:53;;;;;;;1.50;0.93;;;5.10;99.90;;;;;;4971863;28;20917;-67
2021/03/14 00:25:19;;;;;;;0.80;0.80;;;5.10;99.90;;;;;;4971108;28;20239;-66
2021/03/14 00:27:45;;;;;;;2.03;1.33;;;5.10;99.90;;;;;;4975461;28;20201;-66
2021/03/14 00:30:15;;;;;;;0.90;0.60;;;5.20;99.90;;;;;;4972033;28;20244;-68
2021/03/14 00:32:44;;;;;;;0.67;0.63;;;5.20;99.90;;;;;;4977932;28;20176;-68
2021/03/14 00:35:12;;;;;;;0.40;0.40;;;5.20;99.90;;;;;;4971781;28;20279;-66
2021/03/14 00:37:38;;;;;;;0.80;0.80;;;5.30;99.90;;;;;;4978428;28;20184;-66
2021/03/14 00:40:06;;;;;;;21.87;1.00;;;5.30;99.90;;;;;;4970401;28;20189;-66
2021/03/14 00:42:32;;;;;;;0.67;0.60;;;5.30;99.90;;;;;;4970744;28;20185;-69
2021/03/14 00:44:58;;;;;;;0.60;0.60;;;5.30;99.90;;;;;;4972938;28;20775;-69
2021/03/14 00:47:24;;;;;;;1.90;0.80;;;5.30;99.90;;;;;;4970634;28;20192;-68
2021/03/14 00:49:49;;;;;;;0.80;0.57;;;5.30;99.90;;;;;;4974060;28;20300;-70
2021/03/14 00:52:16;;;;;;;0.40;0.40;;;5.30;99.90;;;;;;4972725;28;20641;-65
2021/03/14 00:54:42;;;;;;;0.57;0.53;;;5.30;99.90;;;;;;4972513;28;20693;-69
2021/03/14 00:57:08;;;;;;;0.57;0.50;;;5.30;99.90;;;;;;4980148;28;20180;-70
2021/03/14 00:59:33;;;;;;;2.50;1.03;;;5.30;99.90;;;;;;4989611;28;20213;-65
2021/03/14 01:01:59;;;;;;;2.73;1.13;;;5.30;99.90;;;;;;4970981;28;20189;-69
2021/03/14 01:04:25;;;;;;;1.77;1.23;;;5.30;99.90;;;;;;4975058;28;20204;-67
2021/03/14 01:06:51;;;;;;;1.87;0.60;;;5.30;99.90;;;;;;4974965;28;20215;-69
2021/03/14 01:09:17;;;;;;;1.40;0.87;;;5.30;99.90;;;;;;4972799;28;21212;-69
2021/03/14 01:11:43;;;;;;;6.70;0.73;;;5.40;99.90;;;;;;4982558;28;20247;-66
2021/03/14 01:14:08;;;;;;;0.73;0.73;;;5.30;99.90;;;;;;4978821;28;20224;-65
2021/03/14 01:16:34;;;;;;;1.10;0.50;;;5.30;99.90;;;;;;4976027;28;20181;-68
2021/03/14 01:19:00;;;;;;;0.40;0.40;;;5.30;99.90;;;;;;4970116;28;20315;-71
2021/03/14 01:21:25;;;;;;;1.43;1.17;;;5.40;99.90;;;;;;4978057;28;20222;-67
2021/03/14 01:23:51;;;;;;;4.83;1.40;;;5.40;99.90;;;;;;4979010;28;20695;-68
2021/03/14 01:26:16;;;;;;;1.50;0.80;;;5.40;99.90;;;;;;4988145;28;20185;-66
2021/03/14 01:28:42;;;;;;;0.93;0.87;;;5.50;99.90;;;;;;4978356;28;20275;-68
2021/03/14 01:31:08;;;;;;;0.67;0.47;;;5.50;99.90;;;;;;4978477;28;20188;-68
2021/03/14 01:33:34;;;;;;;0.87;0.50;;;5.50;99.90;;;;;;4973659;28;20216;-67
2021/03/14 01:36:00;;;;;;;2.30;1.07;;;5.50;99.90;;;;;;4976536;28;20177;-69
2021/03/14 01:38:25;;;;;;;1.33;0.77;;;5.50;99.90;;;;;;4972156;28;20582;-67
2021/03/14 01:40:51;;;;;;;2.30;0.80;;;5.50;99.90;;;;;;4973991;28;20184;-69
2021/03/14 01:43:16;;;;;;;0.70;0.70;;;5.50;99.90;;;;;;4975781;28;20299;-70
2021/03/14 01:45:42;;;;;;;2.07;0.93;;;5.50;99.90;;;;;;4979978;28;20303;-69
2021/03/14 01:48:13;;;;;;;1.33;0.77;;;5.50;99.90;;;;;;4979730;28;20839;-69
2021/03/14 01:50:39;;;;;;;0.83;0.83;;;5.50;99.90;;;;;;4977871;28;20220;-68
2021/03/14 01:53:05;;;;;;;0.90;0.90;;;5.50;99.90;;;;;;4975294;28;20219;-68
2021/03/14 01:55:31;;;;;;;1.83;1.03;;;5.50;99.90;;;;;;4974483;28;20181;-68
2021/03/14 01:57:57;;;;;;;1.10;0.80;;;5.50;99.90;;;;;;4976557;28;20230;-66
2021/03/14 02:00:26;;;;;;;2.60;0.70;;;5.60;99.90;;;;;;4977557;28;20228;-67
2021/03/14 02:02:52;;;;;;;1.63;0.80;;;5.50;99.90;;;;;;4978846;28;20238;-67
2021/03/14 02:05:19;;;;;;;0.60;0.60;;;5.30;99.90;;;;;;4975763;28;20227;-69
2021/03/14 02:07:47;;;;;;;0.80;0.40;;;5.20;99.90;;;;;;4977594;28;20217;-68
2021/03/14 02:10:15;;;;;;;1.00;0.60;;;5.10;99.90;;;;;;4975108;28;20219;-68
2021/03/14 02:13:07;;;;;;;1.67;1.00;;;5.10;99.90;;;;;;4972733;28;20211;-68
2021/03/14 02:15:40;;;;;;;1.57;0.63;;;5.00;99.90;;;;;;4972065;28;20185;-68
2021/03/14 02:18:06;;;;;;;0.40;0.40;;;4.90;99.90;;;;;;4987029;28;20204;-68
2021/03/14 02:20:33;;;;;;;0.50;0.50;;;4.80;99.90;;;;;;4972598;28;20220;-69
2021/03/14 02:23:36;;;;;;;1.10;0.73;;;4.70;99.90;;;;;;4978912;28;20592;-69
2021/03/14 02:26:25;;;;;;;3.50;1.00;;;4.80;99.90;;;;;;4972620;28;20660;-68
2021/03/14 02:28:53;;;;;;;0.47;0.47;;;4.80;99.90;;;;;;4973571;28;20196;-68
2021/03/14 02:31:27;;;;;;;1.67;0.60;;;4.90;99.90;;;;;;4976558;28;20191;-65
2021/03/14 02:34:05;;;;;;;0.67;0.50;;;4.80;99.90;;;;;;4977171;28;20226;-66
2021/03/14 02:36:33;;;;;;;2.63;0.57;;;4.60;99.90;;;;;;4978340;28;20179;-68
2021/03/14 02:38:59;;;;;;;0.40;0.40;;;4.50;99.90;;;;;;4979362;28;20188;-67
2021/03/14 02:41:25;;;;;;;0.30;0.30;;;4.30;99.90;;;;;;4974715;28;20183;-69
2021/03/14 02:43:53;;;;;;;0.30;0.30;;;4.30;99.90;;;;;;4975430;28;20203;-70
2021/03/14 02:46:20;;;;;;;0.73;0.73;;;4.20;99.90;;;;;;4981520;28;20242;-66
2021/03/14 02:48:45;;;;;;;0.73;0.73;;;4.10;99.90;;;;;;4979699;28;20193;-68
2021/03/14 02:51:12;;;;;;;1.07;0.83;;;4.10;99.90;;;;;;4977779;28;20626;-65
2021/03/14 02:53:39;;;;;;;0.90;0.83;;;4.10;99.90;;;;;;4979269;28;20204;-67
2021/03/14 02:56:05;;;;;;;0.93;0.73;;;4.10;99.90;;;;;;4975696;28;20176;-66
2021/03/14 02:58:32;;;;;;;1.30;1.20;;;4.00;99.90;;;;;;4978413;28;20184;-66
2021/03/14 03:01:01;;;;;;;1.40;1.07;;;4.00;99.90;;;;;;4978757;28;20241;-70
2021/03/14 03:03:27;;;;;;;1.20;0.80;;;4.00;99.90;;;;;;4978233;28;20263;-69
2021/03/14 03:06:00;;;;;;;0.57;0.47;;;4.00;99.90;;;;;;4976810;28;20204;-65
2021/03/14 03:08:27;;;;;;;0.50;0.50;;;4.00;99.90;;;;;;4979909;28;20199;-70
2021/03/14 03:10:54;;;;;;;1.70;0.93;;;4.00;99.90;;;;;;4976844;28;20595;-69
2021/03/14 03:13:22;;;;;;;1.33;0.67;;;4.00;99.90;;;;;;4972835;28;20250;-66
2021/03/14 03:15:48;;;;;;;1.00;0.90;;;4.00;99.90;;;;;;4976777;28;20712;-64
2021/03/14 03:18:15;;;;;;;2.27;0.80;;;4.00;99.90;;;;;;4972901;28;20194;-67
2021/03/14 03:20:42;;;;;;;1.30;0.87;;;4.10;99.90;;;;;;4975510;28;20683;-68
2021/03/14 03:23:08;;;;;;;0.67;0.67;;;4.10;99.90;;;;;;4978860;28;20240;-66
2021/03/14 03:25:34;;;;;;;0.83;0.80;;;4.10;99.90;;;;;;4973122;28;20197;-69
2021/03/14 03:28:01;;;;;;;0.73;0.73;;;4.20;99.90;;;;;;4976840;28;20196;-65
2021/03/14 03:30:28;;;;;;;0.97;0.60;;;4.20;99.90;;;;;;4979987;28;20572;-66
2021/03/14 03:32:54;;;;;;;1.40;0.97;;;4.20;99.90;;;;;;4976485;28;20295;-70
2021/03/14 03:35:21;;;;;;;0.60;0.60;;;4.10;99.90;;;;;;4974156;28;20235;-67
2021/03/14 03:37:48;;;;;;;0.70;0.70;;;4.00;99.90;;;;;;4973851;28;20684;-66
2021/03/14 03:40:16;;;;;;;0.57;0.57;;;3.90;99.90;;;;;;4973126;28;20191;-68
2021/03/14 03:43:03;;;;;;;1.10;0.97;;;3.80;99.90;;;;;;4978428;28;20185;-67
2021/03/14 03:45:32;;;;;;;0.93;0.83;;;3.70;99.90;;;;;;4978680;28;20657;-69
2021/03/14 03:47:59;;;;;;;0.43;0.43;;;3.80;99.90;;;;;;4976184;28;20267;-65
2021/03/14 03:50:26;;;;;;;1.17;0.80;;;3.80;99.90;;;;;;4973638;28;20660;-68
2021/03/14 03:52:53;;;;;;;0.63;0.60;;;3.80;99.90;;;;;;4975751;28;20188;-65
2021/03/14 03:55:19;;;;;;;0.70;0.60;;;3.80;99.90;;;;;;4974484;28;20189;-67
2021/03/14 03:57:45;;;;;;;0.80;0.80;;;3.90;99.90;;;;;;4972419;28;20594;-67
2021/03/14 04:00:17;;;;;;;5.70;1.03;;;3.90;99.90;;;;;;4974238;28;20241;-67
2021/03/14 04:02:44;;;;;;;0.97;0.87;;;3.90;99.90;;;;;;4976836;28;20188;-68
2021/03/14 04:05:11;;;;;;;0.80;0.60;;;3.90;99.90;;;;;;4974356;28;20235;-69
2021/03/14 04:07:39;;;;;;;0.87;0.60;;;4.00;99.90;;;;;;4973408;28;20201;-67
2021/03/14 04:10:08;;;;;;;0.73;0.73;;;4.00;99.90;;;;;;4973288;28;20270;-69
2021/03/14 04:12:37;;;;;;;1.10;0.80;;;4.00;99.90;;;;;;4975243;28;20299;-69
2021/03/14 04:15:04;;;;;;;1.57;0.90;;;4.10;99.90;;;;;;4973201;28;20327;-68
2021/03/14 04:17:30;;;;;;;1.70;1.57;;;4.10;99.90;;;;;;4977866;28;20651;-67
2021/03/14 04:20:00;;;;;;;1.20;1.10;;;4.20;99.90;;;;;;4973060;28;20199;-69
2021/03/14 04:22:27;;;;;;;1.20;1.10;;;4.20;99.90;;;;;;4986728;28;20188;-68
2021/03/14 04:24:53;;;;;;;1.03;0.77;;;4.20;99.90;;;;;;4970535;28;20217;-66
2021/03/14 04:27:19;;;;;;;1.17;0.50;;;3.90;99.90;;;;;;4976421;28;20549;-64
2021/03/14 04:29:47;;;;;;;0.37;0.37;;;3.50;99.90;;;;;;4973303;28;20219;-68
2021/03/14 04:32:13;;;;;;;0.30;0.30;;;3.20;99.90;;;;;;4977398;28;20185;-68
2021/03/14 04:34:39;;;;;;;0.60;0.40;;;3.00;99.90;;;;;;4976000;28;20692;-66
2021/03/14 04:37:07;;;;;;;0.63;0.60;;;2.90;99.90;;;;;;4978642;28;20265;-67
2021/03/14 04:39:33;;;;;;;0.53;0.30;;;2.90;99.90;;;;;;4977243;28;20288;-67
2021/03/14 04:42:00;;;;;;;1.07;0.57;;;2.90;99.90;;;;;;4988310;28;20295;-64
2021/03/14 04:44:27;;;;;;;0.20;0.20;;;2.90;99.90;;;;;;4969523;28;20192;-69
2021/03/14 04:46:53;;;;;;;0.40;0.40;;;2.90;99.90;;;;;;4979153;28;20287;-67
2021/03/14 04:49:19;;;;;;;1.17;0.77;;;3.00;99.90;;;;;;4983509;28;20731;-69
2021/03/14 04:51:45;;;;;;;0.63;0.63;;;3.00;99.90;;;;;;4979202;28;20190;-68
2021/03/14 04:54:13;;;;;;;0.40;0.40;;;3.10;99.90;;;;;;4979124;28;20686;-67
2021/03/14 04:56:40;;;;;;;0.20;0.20;;;3.10;99.90;;;;;;4981013;28;20181;-68
2021/03/14 04:59:11;;;;;;;2.63;0.60;;;3.10;99.90;;;;;;4975810;28;20607;-66
2021/03/14 05:01:43;;;;;;;3.53;0.47;;;3.20;99.90;;;;;;4980802;28;20189;-71
2021/03/14 05:04:12;;;;;;;1.03;0.97;;;3.20;99.90;;;;;;4982013;28;20197;-68
2021/03/14 05:06:41;;;;;;;2.37;1.17;;;3.10;99.90;;;;;;4976639;28;20250;-66
2021/03/14 05:09:07;;;;;;;0.73;0.70;;;3.10;99.90;;;;;;4974877;28;20282;-67
2021/03/14 05:11:34;;;;;;;0.70;0.70;;;3.10;99.90;;;;;;4978721;28;20189;-67
2021/03/14 05:14:00;;;;;;;0.30;0.30;;;3.10;99.90;;;;;;4976643;28;20274;-68
2021/03/14 05:16:27;;;;;;;0.63;0.63;;;3.20;99.90;;;;;;4977654;28;20188;-66
2021/03/14 05:18:53;;;;;;;0.50;0.50;;;3.20;99.90;;;;;;4973298;28;20275;-69
2021/03/14 05:21:19;;;;;;;0.50;0.50;;;3.20;99.90;;;;;;4974341;28;20184;-69
2021/03/14 05:23:46;;;;;;;0.40;0.40;;;3.20;99.90;;;;;;4977005;28;20217;-69
2021/03/14 05:26:13;;;;;;;0.40;0.30;;;3.20;99.90;;;;;;4981183;28;20211;-68
2021/03/14 05:28:41;;;;;;;0.50;0.50;;;3.30;99.90;;;;;;4980873;28;20184;-69
2021/03/14 05:31:31;;;;;;;0.93;0.47;;;3.40;99.90;;;;;;4976111;28;20224;-67
2021/03/14 05:34:03;;;;;;;0.50;0.50;;;3.40;99.90;;;;;;4978899;28;20212;-68
2021/03/14 05:36:29;;;;;;;0.53;0.40;;;3.30;99.90;;;;;;4977112;28;20185;-69
2021/03/14 05:38:57;;;;;;;0.20;0.20;;;3.40;99.90;;;;;;4978556;28;20812;-70
2021/03/14 05:41:24;;;;;;;0.30;0.30;;;3.30;99.90;;;;;;4978783;28;20572;-68
2021/03/14 05:43:50;;;;;;;0.37;0.37;;;3.30;99.90;;;;;;4979298;28;20854;-68
2021/03/14 05:46:17;;;;;;;0.20;0.20;;;3.40;99.90;;;;;;4971023;28;20666;-68
2021/03/14 05:48:46;;;;;;;0.57;0.43;;;3.40;99.90;;;;;;4973023;28;20315;-68
2021/03/14 05:51:28;;;;;;;0.40;0.30;;;3.40;99.90;;;;;;4974397;28;20251;-67
2021/03/14 05:53:55;;;;;;;0.50;0.37;;;3.40;99.90;;;;;;4976738;28;20715;-67
2021/03/14 05:56:22;;;;;;;0.40;0.40;;;3.40;99.90;;;;;;4974312;28;20638;-68
2021/03/14 05:58:50;;;;;;;0.63;0.40;;;3.40;99.90;;;;;;4979662;28;20664;-69
2021/03/14 06:01:17;;;;;;;4.30;1.10;;;3.40;99.90;;;;;;4977403;28;20648;-67
2021/03/14 06:03:43;;;;;;;0.40;0.30;;;3.40;99.90;;;;;;4976982;28;20236;-67
2021/03/14 06:06:11;;;;;;;0.43;0.43;;;3.50;99.90;;;;;;4978467;28;20699;-66
2021/03/14 06:08:38;;;;;;;1.00;0.30;;;3.50;99.90;;;;;;4976781;28;20595;-67
2021/03/14 06:11:05;;;;;;;0.40;0.40;;;3.60;99.90;;;;;;4976374;28;20212;-69
2021/03/14 06:13:31;;;;;;;1.07;0.50;;;3.60;99.90;;;;;;4980473;28;20209;-68
2021/03/14 06:15:57;;;;;;;0.37;0.37;;;3.60;99.90;;;;;;4977750;28;20185;-66
2021/03/14 06:18:24;;;;;;;0.60;0.60;;;3.60;99.90;;;;;;4978012;28;20178;-66
2021/03/14 06:20:49;;;;;;;0.53;0.53;;;3.70;99.90;;;;;;4979382;28;20195;-68
2021/03/14 06:23:17;;;;;;;0.80;0.80;;;3.70;99.90;;;;;;4980544;28;20445;-67
2021/03/14 06:25:46;;;;;;;0.97;0.67;;;3.80;99.90;;;;;;4979339;28;20562;-65
2021/03/14 06:28:13;;;;;;;1.87;1.00;;;3.80;99.90;;;;;;4979158;28;20181;-68
2021/03/14 06:30:40;;;;;;;2.37;1.33;;;3.90;99.90;;;;;;4978812;28;20221;-69
2021/03/14 06:33:08;;;;;;;0.93;0.67;;;3.90;99.90;;;;;;4977400;28;20189;-67
2021/03/14 06:35:54;;;;;;;1.63;0.60;;;3.90;99.90;;;;;;4976690;28;20181;-68
2021/03/14 06:38:28;;;;;;;1.63;0.80;;;4.00;99.90;;;;;;4980443;28;20176;-67
2021/03/14 06:41:06;;;;;;;1.13;1.03;;;4.00;99.90;;;;;;4977611;28;20188;-68
2021/03/14 06:43:39;;;;;;;1.33;0.77;;;4.10;99.90;;;;;;4979544;28;20207;-66
2021/03/14 06:46:23;;;;;;;1.37;0.77;;;4.10;99.90;;;;;;4978960;28;20215;-68
2021/03/14 06:49:03;;;;;;;0.87;0.60;;;4.10;99.90;;;;;;4977182;28;20667;-69
2021/03/14 06:51:33;;;;;;;0.83;0.47;;;4.10;99.90;;;;;;4977432;28;20175;-66
2021/03/14 06:54:20;;;;;;;0.83;0.70;;;4.20;99.90;;;;;;4976936;28;20208;-68
2021/03/14 06:57:13;;;;;;;0.80;0.80;;;4.20;99.90;;;;;;4979655;28;20180;-67
2021/03/14 06:59:40;;;;;;;0.40;0.40;;;4.10;99.90;;;;;;4981144;28;20192;-70
2021/03/14 07:02:09;;;;;;;0.67;0.67;;;4.20;99.90;;;;;;4978043;28;20220;-68
2021/03/14 07:04:42;;;;;;;1.17;0.57;;;4.10;99.90;;;;;;4975488;28;20201;-68
2021/03/14 07:07:33;;;;;;;1.70;0.53;;;4.10;99.90;;;;;;4975974;28;20188;-69
2021/03/14 07:10:08;;;;;;;1.17;0.73;;;4.20;99.90;;;;;;4975729;28;20220;-67
2021/03/14 07:12:44;;;;;;;0.40;0.40;;;4.10;99.90;;;;;;4975214;28;20207;-68
2021/03/14 07:15:13;;;;;;;1.37;0.30;;;4.00;99.90;;;;;;4973962;28;20206;-65
2021/03/14 07:17:40;;;;;;;0.20;0.20;;;3.80;99.90;;;;;;4973337;28;20311;-67
2021/03/14 07:20:13;;;;;;;0.67;0.67;;;3.70;99.90;;;;;;4976626;28;20266;-64
2021/03/14 07:22:39;;;;;;;0.20;0.20;;;3.70;99.90;;;;;;4974311;28;20191;-70
2021/03/14 07:25:19;;;;;;;0.30;0.30;;;3.60;99.90;;;;;;4974641;28;20200;-69
2021/03/14 07:27:45;;;;;;;0.53;0.37;;;3.60;99.90;;;;;;4969416;28;20227;-67
2021/03/14 07:30:12;;;;;;;0.30;0.30;;;3.70;99.90;;;;;;4964469;28;20967;-72
2021/03/14 07:32:39;;;;;;;2.07;0.60;;;3.70;99.90;;;;;;4972089;28;20219;-66
2021/03/14 07:35:06;;;;;;;0.67;0.50;;;3.80;99.90;;;;;;4969903;28;20208;-66
2021/03/14 07:37:32;;;;;;;2.70;1.10;;;3.80;99.90;;;;;;4967939;28;20181;-67
2021/03/14 07:39:58;;;;;;;0.73;0.60;;;4.00;99.90;;;;;;4972345;28;20232;-68
2021/03/14 07:42:23;;;;;;;0.83;0.70;;;4.00;99.90;;;;;;4974858;28;20188;-70
2021/03/14 07:44:49;;;;;;;2.50;0.57;;;4.10;99.90;;;;;;4973130;28;20208;-67
2021/03/14 07:47:17;;;;;;;0.90;0.70;;;4.20;99.90;;;;;;4970098;28;20180;-66
2021/03/14 07:49:55;;;;;;;1.20;0.73;;;4.20;99.90;;;;;;4981849;28;20216;-64
2021/03/14 07:52:27;;;;;;;3.07;1.27;;;4.20;99.90;;;;;;4967671;28;20184;-68
2021/03/14 07:55:04;;;;;;;3.37;1.17;;;4.30;99.90;;;;;;4970026;28;20208;-67
2021/03/14 07:57:31;;;;;;;1.30;1.20;;;4.30;99.90;;;;;;4976521;28;20177;-69
2021/03/14 07:59:57;;;;;;;2.23;1.30;;;4.40;99.90;;;;;;4978954;28;20203;-66
2021/03/14 08:02:23;;;;;;;2.90;1.77;;;4.50;99.90;;;;;;4977981;28;20236;-65
2021/03/14 08:04:55;;;;;;;4.53;1.03;;;4.50;99.90;;;;;;4978765;28;20331;-67
2021/03/14 08:07:33;;;;;;;1.33;1.20;;;4.50;99.90;;;;;;4978274;28;20667;-67
2021/03/14 08:10:00;;;;;;;1.03;0.93;;;4.60;99.90;;;;;;4978887;28;20200;-67
2021/03/14 08:12:33;;;;;;;0.90;0.90;;;4.70;99.90;;;;;;4975138;28;20188;-70
2021/03/14 08:15:02;;;;;;;4.67;0.93;;;4.70;99.90;;;;;;4977553;28;20594;-68
2021/03/14 08:17:37;;;;;;;4.13;1.47;;;4.90;99.90;;;;;;4978230;28;20176;-66
2021/03/14 08:20:04;;;;;;;1.10;1.00;;;5.00;99.90;;;;;;4979546;28;20187;-68
2021/03/14 08:22:39;;;;;;;5.10;2.20;;;5.10;99.90;;;;;;4977066;28;20652;-67
2021/03/14 08:25:21;;;;;;;1.30;1.10;;;5.10;99.90;;;;;;4976276;28;20228;-67
2021/03/14 08:27:48;;;;;;;3.13;1.80;;;5.10;99.90;;;;;;4980969;28;20763;-66
2021/03/14 08:30:32;;;;;;;2.17;1.20;;;5.30;99.90;;;;;;4977927;28;20315;-66
2021/03/14 08:33:21;;;;;;;1.00;0.97;;;5.40;99.90;;;;;;4978952;28;20707;-67
2021/03/14 08:35:57;;;;;;;1.23;1.10;;;5.50;99.90;;;;;;4978565;28;20185;-68
2021/03/14 08:38:47;;;;;;;0.90;0.87;;;5.50;99.90;;;;;;4976375;28;20189;-67
2021/03/14 08:41:30;;;;;;;1.10;0.83;;;5.60;99.90;;;;;;4971780;28;20192;-67
2021/03/14 08:44:06;;;;;;;3.60;1.60;;;5.60;99.90;;;;;;4974186;28;20710;-70
2021/03/14 08:46:49;;;;;;;1.83;1.17;;;5.70;99.90;;;;;;4968826;28;20278;-67
2021/03/14 08:49:20;;;;;;;3.00;1.30;;;5.70;99.90;;;;;;4968098;28;20180;-67
2021/03/14 08:51:48;;;;;;;1.57;1.10;;;5.80;99.90;;;;;;4965524;28;20651;-67
2021/03/14 08:54:14;;;;;;;3.33;1.83;;;5.80;99.90;;;;;;4972377;28;20207;-69
2021/03/14 08:56:41;;;;;;;1.67;1.57;;;5.80;99.90;;;;;;4964983;28;20185;-68
2021/03/14 08:59:08;;;;;;;1.90;1.30;;;5.90;99.90;;;;;;4965329;28;20201;-69
2021/03/14 09:01:35;;;;;;;1.97;1.40;;;6.10;99.90;;;;;;4962541;28;20204;-68
2021/03/14 09:04:17;;;;;;;2.50;1.53;;;6.00;99.90;;;;;;4970704;28;20583;-70
2021/03/14 09:06:44;;;;;;;3.67;1.30;;;6.00;99.90;;;;;;4987297;28;20299;-69
2021/03/14 09:09:11;;;;;;;2.90;1.20;;;6.10;99.90;;;;;;4985588;28;20550;-67
2021/03/14 09:11:53;;;;;;;6.53;2.93;;;6.10;99.90;;;;;;4974632;28;20197;-70
2021/03/14 09:14:22;;;;;;;3.73;1.00;;;6.30;99.90;;;;;;4963486;28;20208;-68
2021/03/14 09:16:50;;;;;;;9.50;1.53;;;6.30;99.90;;;;;;4966807;28;20193;-71
2021/03/14 09:19:33;;;;;;;2.50;1.63;;;6.40;99.90;;;;;;4977646;28;20173;-68
2021/03/14 09:22:05;;;;;;;1.10;0.87;;;6.40;99.90;;;;;;4969249;28;20208;-67
2021/03/14 09:24:36;;;;;;;1.00;0.90;;;6.40;99.90;;;;;;4968034;28;20263;-69
2021/03/14 09:27:08;;;;;;;2.37;1.07;;;6.40;99.90;;;;;;4973948;28;20665;-68
2021/03/14 09:29:56;;;;;;;2.77;1.13;;;6.50;99.90;;;;;;4971061;28;20232;-68
2021/03/14 09:32:38;;;;;;;1.07;0.93;;;6.70;99.90;;;;;;4969783;28;20177;-67
2021/03/14 09:35:16;;;;;;;2.00;1.27;;;6.60;99.90;;;;;;4995805;28;20208;-70
2021/03/14 09:37:42;;;;;;;1.20;0.90;;;6.60;99.90;;;;;;4980470;28;20955;-69
2021/03/14 09:40:21;;;;;;;3.17;1.10;;;6.70;99.90;;;;;;4974097;28;20181;-71
2021/03/14 09:42:53;;;;;;;0.80;0.80;;;6.70;99.90;;;;;;4965124;28;21232;-67
2021/03/14 09:45:22;;;;;;;2.43;1.20;;;6.80;99.90;;;;;;4971262;28;20272;-66
2021/03/14 09:48:05;;;;;;;1.97;1.70;;;6.70;99.90;;;;;;4965462;28;20291;-68
2021/03/14 09:50:34;;;;;;;1.87;1.13;;;6.60;99.90;;;;;;4967873;28;20204;-67
2021/03/14 09:53:01;;;;;;;1.80;1.17;;;6.60;99.90;;;;;;4976368;28;20267;-67
2021/03/14 09:55:36;;;;;;;8.43;7.60;;;6.50;99.90;;;;;;4974869;28;20312;-70
2021/03/14 09:58:03;;;;;;;1.10;1.00;;;6.50;99.90;;;;;;4977131;28;20176;-68
2021/03/14 10:00:32;;;;;;;0.80;0.80;;;6.50;99.90;;;;;;4973480;28;20897;-64
2021/03/14 10:03:00;;;;;;;1.37;1.00;;;6.60;99.90;;;;;;4976634;28;20272;-68
2021/03/14 10:05:26;;;;;;;0.80;0.70;;;6.70;99.90;;;;;;4977365;28;20193;-66
2021/03/14 10:07:53;;;;;;;2.60;1.20;;;6.70;99.90;;;;;;4977291;28;20543;-67
2021/03/14 10:10:19;;;;;;;2.93;0.80;;;6.80;99.90;;;;;;4978370;28;20196;-67
2021/03/14 10:12:45;;;;;;;1.33;1.17;;;6.70;99.90;;;;;;4977926;28;20677;-70
2021/03/14 10:15:15;;;;;;;1.43;1.10;;;6.80;99.90;;;;;;4979386;28;20215;-68
2021/03/14 10:17:41;;;;;;;0.80;0.80;;;6.80;99.90;;;;;;4979793;28;20679;-70
2021/03/14 10:20:07;;;;;;;1.60;0.80;;;6.90;99.90;;;;;;4979141;28;20193;-69
2021/03/14 10:22:34;;;;;;;0.67;0.67;;;7.00;99.90;;;;;;4978379;28;20275;-68
2021/03/14 10:24:59;;;;;;;1.20;0.60;;;6.90;99.90;;;;;;4978063;28;20814;-69
2021/03/14 10:27:29;;;;;;;3.00;1.20;;;6.80;99.90;;;;;;4977481;28;20188;-67
2021/03/14 10:29:59;;;;;;;1.83;0.90;;;6.70;99.90;;;;;;4973902;28;20214;-70
2021/03/14 10:32:27;;;;;;;0.90;0.90;;;6.70;99.90;;;;;;4976261;28;20636;-68
2021/03/14 10:34:57;;;;;;;1.90;0.77;;;6.60;99.90;;;;;;4977021;28;20720;-69
2021/03/14 10:37:28;;;;;;;3.40;0.80;;;6.60;99.90;;;;;;4974342;28;20182;-67
2021/03/14 10:39:59;;;;;;;1.00;0.90;;;6.60;99.90;;;;;;4976814;28;20192;-68
2021/03/14 10:42:45;;;;;;;0.67;0.67;;;6.60;99.90;;;;;;4974191;28;20181;-68
2021/03/14 10:45:17;;;;;;;1.03;0.70;;;6.70;99.90;;;;;;4977259;28;20671;-67
2021/03/14 10:47:45;;;;;;;1.30;0.80;;;6.80;99.90;;;;;;4973323;28;20191;-68
2021/03/14 10:50:15;;;;;;;2.50;0.90;;;6.70;99.90;;;;;;4973853;28;20238;-70
2021/03/14 10:52:40;;;;;;;1.10;0.70;;;6.60;99.90;;;;;;4975312;28;20268;-67
2021/03/14 10:55:27;;;;;;;1.00;0.90;;;6.50;99.90;;;;;;4978878;28;20761;-71
2021/03/14 10:58:06;;;;;;;1.20;1.10;;;6.60;99.90;;;;;;4976639;28;20242;-67
2021/03/14 11:00:32;;;;;;;1.00;0.80;;;6.70;99.90;;;;;;4974672;28;20456;-70
2021/03/14 11:02:59;;;;;;;0.80;0.80;;;6.90;99.90;;;;;;4975629;28;20196;-70
2021/03/14 11:05:25;;;;;;;0.50;0.50;;;7.00;99.90;;;;;;4975278;28;20553;-67
2021/03/14 11:08:02;;;;;;;0.67;0.63;;;7.20;99.90;;;;;;4977238;28;20194;-70
2021/03/14 11:10:28;;;;;;;1.97;1.40;;;7.40;99.90;;;;;;4975531;28;20218;-70
2021/03/14 11:12:53;;;;;;;1.00;0.80;;;7.50;99.90;;;;;;4975019;28;20200;-70
2021/03/14 11:15:30;;;;;;;0.87;0.60;;;7.50;99.90;;;;;;4978277;28;20207;-70
2021/03/14 11:17:58;;;;;;;0.90;0.57;;;7.50;99.90;;;;;;4974638;28;20180;-70
2021/03/14 11:20:26;;;;;;;1.00;0.57;;;7.40;99.90;;;;;;4973686;28;20824;-70
2021/03/14 11:22:52;;;;;;;1.90;1.43;;;7.50;99.90;;;;;;4974246;28;20279;-69
2021/03/14 11:25:20;;;;;;;1.53;1.23;;;7.30;99.90;;;;;;4974766;28;20678;-67
2021/03/14 11:27:47;;;;;;;2.13;1.00;;;7.40;99.90;;;;;;4977182;28;20282;-69
2021/03/14 11:30:14;;;;;;;1.07;0.70;;;7.50;99.90;;;;;;4975177;28;20246;-71
2021/03/14 11:32:40;;;;;;;1.27;1.03;;;7.70;99.90;;;;;;4974391;28;20275;-70
2021/03/14 11:35:07;;;;;;;1.03;1.00;;;7.90;99.90;;;;;;4973988;28;20743;-67
2021/03/14 11:37:33;;;;;;;1.93;0.87;;;8.10;99.90;;;;;;4975671;28;20271;-68
2021/03/14 11:39:58;;;;;;;2.40;0.53;;;7.90;99.90;;;;;;4976882;28;20260;-70
2021/03/14 11:42:24;;;;;;;0.67;0.50;;;7.80;99.90;;;;;;4973310;28;20185;-69
2021/03/14 11:44:50;;;;;;;0.83;0.57;;;8.10;99.90;;;;;;4974173;28;20271;-70
2021/03/14 11:47:16;;;;;;;2.43;0.97;;;8.20;99.90;;;;;;4975941;28;20211;-69
2021/03/14 11:49:41;;;;;;;1.60;1.10;;;8.20;99.90;;;;;;4975279;28;21126;-69
2021/03/14 11:52:07;;;;;;;0.33;0.33;;;8.30;99.90;;;;;;4973485;28;20180;-70
2021/03/14 11:54:33;;;;;;;0.97;0.87;;;8.40;99.90;;;;;;4975631;28;20208;-66
2021/03/14 11:56:59;;;;;;;0.93;0.80;;;8.50;99.90;;;;;;4972328;28;20181;-69
2021/03/14 11:59:25;;;;;;;1.73;0.60;;;8.50;99.90;;;;;;4974473;28;20198;-69
2021/03/14 12:01:50;;;;;;;1.57;1.30;;;8.50;99.90;;;;;;4975809;28;20184;-69
2021/03/14 12:04:19;;;;;;;1.07;0.60;;;8.40;99.90;;;;;;4975882;28;20196;-68
2021/03/14 12:06:45;;;;;;;0.70;0.70;;;8.30;99.90;;;;;;4977670;28;20323;-69
2021/03/14 12:09:11;;;;;;;0.60;0.60;;;8.40;99.90;;;;;;4973998;28;20189;-72
2021/03/14 12:11:37;;;;;;;0.93;0.60;;;8.40;99.90;;;;;;4977757;28;20185;-68
2021/03/14 12:14:03;;;;;;;1.23;1.00;;;8.30;99.90;;;;;;4975507;28;20307;-71
2021/03/14 12:16:29;;;;;;;0.73;0.73;;;8.30;99.90;;;;;;4978420;28;20177;-69
2021/03/14 12:18:55;;;;;;;0.80;0.70;;;8.20;99.90;;;;;;4977131;28;20239;-72
2021/03/14 12:21:21;;;;;;;0.87;0.60;;;8.30;99.90;;;;;;4977063;28;20271;-68
2021/03/14 12:23:46;;;;;;;1.37;0.93;;;8.20;99.90;;;;;;4977562;28;20335;-67
2021/03/14 12:26:12;;;;;;;1.90;0.80;;;8.10;99.90;;;;;;4979327;28;20184;-70
2021/03/14 12:28:38;;;;;;;3.17;0.90;;;7.90;99.90;;;;;;4977247;28;20212;-67
2021/03/14 12:31:04;;;;;;;0.93;0.70;;;8.10;99.90;;;;;;4977032;28;20619;-69
2021/03/14 12:33:30;;;;;;;1.80;0.90;;;8.10;99.90;;;;;;4979929;28;20239;-68
2021/03/14 12:35:55;;;;;;;0.73;0.60;;;8.00;99.90;;;;;;4975589;28;20184;-69
2021/03/14 12:38:21;;;;;;;0.70;0.70;;;7.90;99.90;;;;;;4976746;28;20203;-70
2021/03/14 12:40:47;;;;;;;1.20;0.83;;;7.80;99.90;;;;;;4976076;28;20236;-69
2021/03/14 12:43:15;;;;;;;0.97;0.97;;;7.60;99.90;;;;;;4975120;28;20207;-70
2021/03/14 12:45:41;;;;;;;1.20;0.80;;;7.60;99.90;;;;;;4977427;28;20186;-69
2021/03/14 12:48:08;;;;;;;1.20;1.10;;;7.60;99.90;;;;;;4976465;28;20176;-69
2021/03/14 12:50:34;;;;;;;2.03;1.00;;;7.80;99.90;;;;;;4977195;28;20195;-69
2021/03/14 12:53:00;;;;;;;1.97;0.87;;;8.00;99.90;;;;;;4975924;28;20617;-70
2021/03/14 12:55:27;;;;;;;2.40;1.00;;;8.20;99.90;;;;;;4978213;28;20267;-70
2021/03/14 12:57:53;;;;;;;0.80;0.70;;;8.10;99.90;;;;;;4977245;28;20192;-66
2021/03/14 13:00:19;;;;;;;1.53;0.83;;;8.00;99.90;;;;;;4977679;28;20181;-68
2021/03/14 13:02:46;;;;;;;2.40;0.90;;;7.70;99.90;;;;;;4974869;28;20185;-68
2021/03/14 13:05:12;;;;;;;1.13;1.00;;;7.60;99.90;;;;;;4978629;28;20201;-70
2021/03/14 13:07:38;;;;;;;1.10;0.90;;;7.50;99.90;;;;;;4982706;28;20263;-68